logo
App data

Constant C

In the year 1905, Albert Einstein published the theory of special relativity, suggesting that nothing could move faster than the speed of light. What if any mortal could break that constant? Stretch it beyond its limits? Would human beings finally be able to find a way to cheat death and win over immorality?
Store | Hub | SteamDB | Site
Developer: International Games System, Co., LTD. Publisher: International Games System, Co., LTD.
Genre: Action, Casual, Indie
Languages: English, French, Italian, German, Japanese, Korean, Simplified Chinese, Traditional Chinese
Tags: Indie (40), Puzzle (29), Casual (27), Action (26), Platformer (18)
Category: Single-player, Steam Achievements, Full controller support, Steam Trading Cards, Partial Controller Support, Steam Cloud, Steam Leaderboards, Remote Play on TV
Release date: Mar 7, 2014
Price: $9.99
Old userscore: 86% Metascore: 60%
Owners: 20,000 .. 50,000
Followers: 324
Playtime total: 02:11 (average) 02:11 (median)

Steam Spy is still in beta, so expect major bugs.

Owners data:

Access restricted.

This feature is only available to users with special access rights. Sorry.

If you want to proceed, you need to register or log in first and then back Steam Spy on Patreon. Look for Indie or Pro pledge.

Don't forget to use the same email as on Steam Spy!

Audience in 2 weeks:

Access restricted.

This feature is only available to users with special access rights. Sorry.

If you want to proceed, you need to register or log in first and then back Steam Spy on Patreon. Look for Indie or Pro pledge.

Don't forget to use the same email as on Steam Spy!

Peak daily concurrent players:

CCU data courtesy of SteamDB. Used with permission.

Hourly concurrent players:

Daily Twitch stats:

Hourly Twitch stats:

Followers over time

Access restricted.

This feature is only available to users with special access rights. Sorry.

If you want to proceed, you need to register or log in first and then back Steam Spy on Patreon. Look for Indie or Pro pledge.

Don't forget to use the same email as on Steam Spy!

Views for top 50 videos on YouTube for this game:

Games similar to this one:

# Game Release date
Price
Score rank
(Userscore / Metascore)
Owners
Players
Playtime (Median)
1 OPUS: The Day We Found Earth Apr 21, 2016 $8.99N/A (N/A)50,000 .. 100,0000%00:00 (00:00)
2 Dinosaur Forest May 17, 2017 $1.99N/A (N/A)50,000 .. 100,0000%00:00 (00:00)
3 Moonstone Tavern - A Fantasy Tavern Sim! May 13, 2016 $7.99N/A (N/A)20,000 .. 50,0000%00:00 (00:00)
4 Mindless Running Feb 22, 2016 $0.99N/A (N/A)50,000 .. 100,0000%00:00 (00:00)
5 NORTH Apr 27, 2016 $0.59N/A (N/A)200,000 .. 500,0000%00:00 (00:00)
6 Mimpi Dreams Mar 22, 2016 FreeN/A (N/A)50,000 .. 100,0000%00:00 (00:00)
7 上帝之城 I:监狱帝国 [City of God I - Prison Empire] Jul 9, 2018 $18.99N/A (N/A)100,000 .. 200,0000%00:00 (00:00)
8 Amigdala Mar 28, 2016 $5.99N/A (N/A)20,000 .. 50,0000%00:00 (00:00)
9 Scanner Sombre Apr 26, 2017 $5.99N/A (N/A/67%)100,000 .. 200,0000%00:00 (00:00)
10 Cube Land Arena Mar 8, 2019 $0.99N/A (N/A)20,000 .. 50,0000%00:00 (00:00)
11 Star Drifter Jun 1, 2016 $0.99N/A (N/A)200,000 .. 500,0000%00:00 (00:00)
12 Hero Quest: Tower Conflict Apr 13, 2016 $0.99N/A (N/A)200,000 .. 500,0000%00:00 (00:00)
13 Karma Miwa Aug 12, 2016 $0.99N/A (N/A)20,000 .. 50,0000%00:00 (00:00)
14 CrazyCars3D Mar 28, 2016 $2.99N/A (N/A)50,000 .. 100,0000%00:00 (00:00)
15 Super Duper Party Pooper Jun 6, 2016 $0.99N/A (N/A/40%)100,000 .. 200,0000%00:00 (00:00)
16 Emerge: Cities of the Apocalypse Apr 27, 2016 $7.99N/A (N/A)50,000 .. 100,0000%00:00 (00:00)
17 DashBored Jun 13, 2016 $4.99N/A (N/A)20,000 .. 50,0000%00:00 (00:00)
18 Survivor Squad Jan 21, 2015 $2.99N/A (N/A)100,000 .. 200,0000%00:00 (00:00)
19 Autocraft Sep 20, 2017 $9.99N/A (N/A)20,000 .. 50,0000%00:00 (00:00)
20 Montague's Mount Nov 19, 2013 $4.99N/A (N/A/39%)20,000 .. 50,0000%00:00 (00:00)
21 The Novelist Dec 10, 2013 $4.99N/A (N/A/66%)100,000 .. 200,0000%00:00 (00:00)
22 Ballpoint Universe - Infinite Dec 17, 2013 $3.99N/A (N/A)100,000 .. 200,0000%00:00 (00:00)
23 Knytt Underground Oct 25, 2013 $6.99N/A (N/A)50,000 .. 100,0000%00:00 (00:00)
24 STARWHAL Sep 29, 2014 $11.99N/A (N/A)50,000 .. 100,0000%00:00 (00:00)
25 Escape Goat Jun 14, 2012 $4.99N/A (N/A)20,000 .. 50,0000%00:00 (00:00)
26 Jones On Fire Mar 14, 2013 $2.99N/A (N/A)100,000 .. 200,0000%00:00 (00:00)
27 Gravity Ghost Jan 26, 2015 $14.99N/A (N/A/75%)20,000 .. 50,0000%00:00 (00:00)
28 10 Second Ninja Mar 5, 2014 $1.99N/A (N/A/72%)50,000 .. 100,0000%00:00 (00:00)
29 Solar Flux Oct 24, 2013 $9.99N/A (N/A)100,000 .. 200,0000%00:00 (00:00)
30 Labyrinthine Dreams May 26, 2015 $0.49N/A (N/A)50,000 .. 100,0000%00:00 (00:00)
31 FOTONICA Nov 6, 2014 $14.99N/A (N/A/71%)50,000 .. 100,0000%00:00 (00:00)
32 Munin Jun 10, 2014 $4.99N/A (N/A/68%)100,000 .. 200,0000%00:00 (00:00)
33 Escape Goat 2 Mar 24, 2014 $9.99N/A (N/A/76%)50,000 .. 100,0000%00:00 (00:00)
34 ReignMaker Apr 16, 2014 $14.99N/A (N/A)50,000 .. 100,0000%00:00 (00:00)
35 Snake Pass Mar 28, 2017 $19.99N/A (N/A/71%)100,000 .. 200,0000%00:00 (00:00)
36 Monolith Jun 7, 2017 $7.99N/A (N/A/83%)50,000 .. 100,0000%00:00 (00:00)
37 Wayout Nov 4, 2016 $0.49N/A (N/A)50,000 .. 100,0000%00:00 (00:00)
38 Wheels of Aurelia Sep 20, 2016 $9.99N/A (N/A/63%)0 .. 20,0000%00:00 (00:00)
39 Zolg Dec 2, 2016 $0.99N/A (N/A)20,000 .. 50,0000%00:00 (00:00)
40 Joana's Life Sep 1, 2016 $5.99N/A (N/A)50,000 .. 100,0000%00:00 (00:00)
41 Witch It May 31, 2017 $14.99N/A (N/A)200,000 .. 500,0008%00:10 (00:04)
42 It Comes Around - A Kinetic Novel Sep 29, 2016 $2.99N/A (N/A)20,000 .. 50,0000%00:00 (00:00)
43 Introvert Quest Mar 15, 2017 $0.49N/A (N/A)100,000 .. 200,0000%00:00 (00:00)
44 Starship Annihilator Sep 2, 2016 $0.99N/A (N/A)100,000 .. 200,0000%00:00 (00:00)
45 Distant Space Dec 20, 2016 $0.99N/A (N/A)50,000 .. 100,0000%00:00 (00:00)
46 The Gleam: VR Escape the Room Oct 14, 2016 $3.99N/A (N/A)100,000 .. 200,0000%00:00 (00:00)
47 Child Phobia: Nightcoming Fears Dec 20, 2016 $1.99N/A (N/A)20,000 .. 50,0000%00:00 (00:00)
48 mr.President Prologue Episode Sep 20, 2016 $0.99N/A (N/A)50,000 .. 100,0000%00:00 (00:00)
49 Mistwood Heroes Dec 30, 2016 $0.99N/A (N/A)20,000 .. 50,0000%00:00 (00:00)
50 Pixel Gladiator Sep 8, 2017 $4.99N/A (N/A)20,000 .. 50,0000%00:00 (00:00)
51 GORN Jul 18, 2019 $19.99N/A (N/A/85%)200,000 .. 500,0000%00:00 (00:00)
52 Velocibox Sep 8, 2014 $4.99N/A (N/A)50,000 .. 100,0000%00:00 (00:00)
53 Frederic: Resurrection of Music May 16, 2014 $2.99N/A (N/A)100,000 .. 200,0000%00:00 (00:00)
54 Actual Sunlight Apr 3, 2014 $4.99N/A (N/A/77%)20,000 .. 50,0000%00:00 (00:00)
55 Frederic: Evil Strikes Back May 23, 2014 $7.99N/A (N/A)100,000 .. 200,0000%00:00 (00:00)
56 Volt Apr 14, 2014 $0.99N/A (N/A)50,000 .. 100,0000%00:00 (00:00)
57 Rhythm Destruction Jun 16, 2014 $4.99N/A (N/A)50,000 .. 100,0000%00:00 (00:00)
58 Slip Apr 28, 2014 $0.99N/A (N/A)20,000 .. 50,0000%00:00 (00:00)
59 Boson X Sep 15, 2014 $2.99N/A (N/A)50,000 .. 100,0000%00:00 (00:00)
60 Three Dead Zed Jul 7, 2014 $5.99N/A (N/A)50,000 .. 100,0000%00:00 (00:00)
61 Fancy Skulls Jun 16, 2014 $8.99N/A (N/A)50,000 .. 100,0000%00:00 (00:00)
62 Uriel's Chasm Sep 12, 2014 $4.99N/A (N/A)200,000 .. 500,0000%00:00 (00:00)
63 Back to Bed Aug 6, 2014 $5.99N/A (N/A)1,000,000 .. 2,000,0000%00:00 (00:00)
64 The Promised Land Jul 11, 2012 $6.99N/A (N/A)20,000 .. 50,0000%00:00 (00:00)
65 The Masterplan Jun 4, 2015 $19.99N/A (N/A/68%)20,000 .. 50,0000%00:00 (00:00)
66 Dreaming Sarah Mar 12, 2015 $0.59N/A (N/A)100,000 .. 200,0000%00:00 (00:00)
67 A City Sleeps Oct 16, 2014 $9.99N/A (N/A)20,000 .. 50,0000%00:00 (00:00)
68 Captain Forever Remix Jun 3, 2016 $9.99N/A (N/A)20,000 .. 50,0000%00:00 (00:00)
69 Guns of Icarus Alliance Mar 31, 2017 $4.99N/A (N/A)50,000 .. 100,0000%00:00 (00:00)
70 The Archotek Project Apr 28, 2017 $4.99N/A (N/A)50,000 .. 100,0000%00:00 (00:00)
71 Marvin's Mittens Dec 17, 2014 $5.99N/A (N/A)0 .. 20,0000%00:00 (00:00)
72 NEO AQUARIUM - The King of Crustaceans - Jun 8, 2015 $8.99N/A (N/A)20,000 .. 50,0000%00:00 (00:00)
73 Sky Mercenaries Dec 16, 2014 $9.99N/A (N/A)20,000 .. 50,0000%00:00 (00:00)
74 Squishy the Suicidal Pig Oct 23, 2014 $5.99N/A (N/A)200,000 .. 500,0000%00:00 (00:00)
75 Chronicles of a Dark Lord: Episode 1 Tides of Fate Complete Dec 19, 2014 $0.99N/A (N/A)50,000 .. 100,0000%00:00 (00:00)
76 Great Permutator Sep 15, 2014 $6.99N/A (N/A)20,000 .. 50,0000%00:00 (00:00)
77 Ukrainian Ninja Dec 23, 2014 FreeN/A (N/A)20,000 .. 50,0000%00:00 (00:00)
78 Chariot Nov 12, 2014 $14.99N/A (N/A/76%)50,000 .. 100,0000%00:00 (00:00)
79 TIMEframe Jul 7, 2015 $5.99N/A (N/A)50,000 .. 100,0000%00:00 (00:00)
80 Ninja Pizza Girl Sep 30, 2015 $6.99N/A (N/A/82%)50,000 .. 100,0000%00:00 (00:00)
81 On A Roll 3D Feb 12, 2015 $3.99N/A (N/A)50,000 .. 100,0000%00:00 (00:00)
82 Horizon Shift May 29, 2015 $4.99N/A (N/A)200,000 .. 500,0000%00:00 (00:00)
83 The Cursed Forest Feb 26, 2019 $10.99N/A (N/A)0 .. 20,0000%00:00 (00:00)
84 The Deer God Feb 27, 2015 $14.99N/A (N/A/59%)20,000 .. 50,0000%00:00 (00:00)
85 Rats - Time is running out! Aug 19, 2015 $4.99N/A (N/A)50,000 .. 100,0000%00:00 (00:00)
86 Phoenix Force Nov 13, 2014 $3.99N/A (N/A)50,000 .. 100,0000%00:00 (00:00)
87 Star Horizon May 28, 2015 $4.99N/A (N/A)20,000 .. 50,0000%00:00 (00:00)
88 Polyball Dec 1, 2017 $14.99N/A (N/A)0 .. 20,0000%00:00 (00:00)
89 none Nov 4, 2015 N/AN/A (N/A)20,000 .. 50,0000%00:00 (00:00)
90 The Adventures of Mr. Bobley Jun 30, 2015 $3.99N/A (N/A)50,000 .. 100,0000%00:00 (00:00)
91 Leo’s Fortune - HD Edition Sep 8, 2015 $6.99N/A (N/A)0 .. 20,0000%00:00 (00:00)
92 Monument Jun 5, 2015 $3.99N/A (N/A)20,000 .. 50,0000%00:00 (00:00)
93 Home is Where One Starts... May 12, 2015 $2.99N/A (N/A)20,000 .. 50,0000%00:00 (00:00)
94 Western Press Apr 21, 2016 $0.99N/A (N/A)20,000 .. 50,0000%00:00 (00:00)
95 Beyond Eyes Aug 11, 2015 $14.99N/A (N/A/60%)100,000 .. 200,0000%00:00 (00:00)
96 Untamed: Life Of A Cougar Aug 27, 2015 $14.99N/A (N/A)0 .. 20,0000%00:00 (00:00)
97 Gryphon Knight Epic Aug 20, 2015 $6.99N/A (N/A/55%)20,000 .. 50,0000%00:00 (00:00)
98 Action Alien Jun 26, 2015 $3.99N/A (N/A)50,000 .. 100,0000%00:00 (00:00)
99 Canabalt Apr 30, 2015 $2.99N/A (N/A)20,000 .. 50,0000%00:00 (00:00)
100 8Bit Fiesta - Party Game Sep 30, 2016 FreeN/A (N/A)0 .. 20,0000%00:00 (00:00)
101 Spellsworn Mar 13, 2018 FreeN/A (N/A)200,000 .. 500,0000%00:00 (00:00)
102 Dead In Bermuda Aug 27, 2015 $14.99N/A (N/A)20,000 .. 50,0000%00:00 (00:00)
103 Luna Sky Oct 2, 2015 $12.99N/A (N/A)50,000 .. 100,0000%00:00 (00:00)
104 Aviary Attorney Dec 21, 2015 $14.99N/A (N/A/77%)50,000 .. 100,0000%00:00 (00:00)
105 Party of Sin Dec 13, 2012 $5.99N/A (N/A)50,000 .. 100,0000%00:00 (00:00)
106 Super Puzzle Platformer Deluxe May 24, 2013 $7.99N/A (N/A)50,000 .. 100,0000%00:00 (00:00)
107 Home Jun 1, 2012 $4.99N/A (N/A/69%)200,000 .. 500,0000%00:00 (00:00)
108 Critter Crunch Sep 11, 2012 $6.99N/A (N/A)50,000 .. 100,0000%00:00 (00:00)
109 Cargo Commander Nov 1, 2012 $2.99N/A (N/A)100,000 .. 200,0000%00:00 (00:00)
110 BIT.TRIP BEAT Nov 2, 2010 $9.99N/A (N/A)200,000 .. 500,0000%00:00 (00:00)
111 Puddle Nov 9, 2012 $7.99N/A (N/A)100,000 .. 200,0000%00:00 (00:00)
112 Super Splatters Jun 26, 2013 N/AN/A (N/A/73%)100,000 .. 200,0000%00:00 (00:00)
113 Papo & Yo Apr 18, 2013 $14.99N/A (N/A/70%)200,000 .. 500,0000%00:00 (00:00)
114 Titan Attacks! Feb 3, 2012 $9.99N/A (N/A)100,000 .. 200,0000%00:00 (00:00)
115 Bad Hotel Oct 16, 2013 $4.99N/A (N/A)50,000 .. 100,0000%00:00 (00:00)
116 Tales From Space: Mutant Blobs Attack Aug 15, 2012 $9.99N/A (N/A/83%)100,000 .. 200,0000%00:00 (00:00)
117 Godus $14.99N/A (N/A)20,000 .. 50,0000%00:00 (00:00)
118 Unmechanical Aug 8, 2012 $9.99N/A (N/A/74%)100,000 .. 200,0000%00:00 (00:00)
119 Element4l May 24, 2013 $8.99N/A (N/A/77%)50,000 .. 100,0000%00:00 (00:00)
120 Sugar Cube: Bittersweet Factory Nov 7, 2012 $6.99N/A (N/A)20,000 .. 50,0000%00:00 (00:00)
121 Intake Nov 5, 2013 $9.99N/A (N/A)20,000 .. 50,0000%00:00 (00:00)
122 The Purring Quest Nov 12, 2015 $9.99N/A (N/A)50,000 .. 100,0000%00:00 (00:00)
123 Empire of the Gods May 13, 2008 $1.99N/A (N/A)20,000 .. 50,0000%00:00 (00:00)
124 Perraw - FPS Clone War Alpha Jan 29, 2016 $0.99N/A (N/A)0 .. 20,0000%00:00 (00:00)
125 Redemption: Eternal Quest Aug 28, 2015 $1.99N/A (N/A)100,000 .. 200,0000%00:00 (00:00)
126 Morphine Oct 26, 2015 $2.99N/A (N/A)50,000 .. 100,0000%00:00 (00:00)
127 Blaster Shooter GunGuy! Aug 10, 2015 $1.99N/A (N/A)100,000 .. 200,0000%00:00 (00:00)
128 Godus Wars Feb 3, 2016 $14.99N/A (N/A)50,000 .. 100,0000%00:00 (00:00)
129 Wild Island Quest Sep 4, 2015 $1.99N/A (N/A)50,000 .. 100,00014.29%04:07 (01:22)
130 Bell Ringer Mar 6, 2016 $6.99N/A (N/A)200,000 .. 500,0000%00:00 (00:00)
131 Kitchen Simulator 2015 Sep 4, 2015 $0.99N/A (N/A)50,000 .. 100,0000%00:00 (00:00)
132 PERFECT ANGLE: The puzzle game based on optical illusions Dec 22, 2015 $9.99N/A (N/A)50,000 .. 100,0000%00:00 (00:00)
133 Press X to Not Die Oct 6, 2017 $2.99N/A (N/A)50,000 .. 100,0000%00:00 (00:00)
134 TurnOn Jun 1, 2016 $14.99N/A (N/A/67%)20,000 .. 50,0000%00:00 (00:00)
135 Club Life Apr 13, 2016 $11.99N/A (N/A)20,000 .. 50,0000%00:00 (00:00)
136 Doodle Kingdom Jun 9, 2016 $8.99N/A (N/A)20,000 .. 50,0000%00:00 (00:00)
137 1,000 Heads Among the Trees Dec 11, 2015 $4.99N/A (N/A)100,000 .. 200,0000%00:00 (00:00)
138 Rencounter Nov 4, 2016 $5.99N/A (N/A)20,000 .. 50,0000%00:00 (00:00)

Tags over time:

Access restricted.

This feature is only available to users with special access rights. Sorry.

If you want to proceed, you need to register or log in first and then back Steam Spy on Patreon. Look for Indie or Pro pledge.

Don't forget to use the same email as on Steam Spy!

Owners of this game also own:

Access restricted.

This feature is only available to users with special access rights. Sorry.

If you want to proceed, you need to register or log in first and then back Steam Spy on Patreon. Look for Indie or Pro pledge.

Don't forget to use the same email as on Steam Spy!

Playtime distribution:

Access restricted.

This feature is only available to users with special access rights. Sorry.

If you want to proceed, you need to register or log in first and then back Steam Spy on Patreon. Look for Indie or Pro pledge.

Don't forget to use the same email as on Steam Spy!

Playtime (2 weeks):

Access restricted.

This feature is only available to users with special access rights. Sorry.

If you want to proceed, you need to register or log in first and then back Steam Spy on Patreon. Look for Indie or Pro pledge.

Don't forget to use the same email as on Steam Spy!

User reviews:

Login required.

Please register or log in to see this information.